Time,TemperatureF,DewpointF,PressureIn,WindDirection,WindDirectionDegrees,WindSpeedMPH,WindSpeedGustMPH,Humidity,HourlyPrecipIn,Conditions,Clouds,dailyrainin,SoftwareType,DateUTC
2013-04-29 00:03:00,56.8,50.7,29.79,NNW,338,0.0,0.0,80,0.00,,---,0.00,VWS V14.01,2013-04-29 05:03:00,
2013-04-29 00:08:00,56.7,50.9,29.79,NNW,338,0.0,0.0,81,0.00,,---,0.00,VWS V14.01,2013-04-29 05:08:00,
2013-04-29 00:13:00,56.7,50.9,29.79,NNW,338,0.0,0.0,81,0.00,,---,0.00,VWS V14.01,2013-04-29 05:13:00,
2013-04-29 00:18:00,56.7,50.9,29.79,NNW,338,0.0,0.0,81,0.00,,---,0.00,VWS V14.01,2013-04-29 05:18:00,
2013-04-29 00:24:00,56.5,50.7,29.79,NNW,338,0.0,0.0,81,0.00,,---,0.00,VWS V14.01,2013-04-29 05:24:00,
2013-04-29 00:29:00,56.3,50.9,29.79,NNW,338,0.0,0.0,82,0.00,,---,0.00,VWS V14.01,2013-04-29 05:29:00,
2013-04-29 00:35:00,56.3,50.9,29.79,NNW,338,0.0,0.0,82,0.00,,---,0.00,VWS V14.01,2013-04-29 05:35:00,
2013-04-29 00:40:00,56.3,50.9,29.79,NNW,338,0.0,0.0,82,0.00,,---,0.00,VWS V14.01,2013-04-29 05:40:00,
2013-04-29 00:45:00,56.3,51.2,29.79,NNW,338,0.0,0.0,83,0.00,,---,0.00,VWS V14.01,2013-04-29 05:45:00,
2013-04-29 00:50:00,56.5,52.3,29.79,WNW,292,3.8,3.8,86,0.05,,---,0.05,VWS V14.01,2013-04-29 05:50:00,
2013-04-29 00:55:00,56.5,53.6,29.79,West,270,1.3,3.6,90,0.05,,---,0.05,VWS V14.01,2013-04-29 05:55:00,
2013-04-29 01:01:00,56.7,54.1,29.82,NW,315,1.1,2.0,91,0.05,,---,0.05,VWS V14.01,2013-04-29 06:01:00,
2013-04-29 01:07:00,56.7,53.8,29.82,WNW,292,1.6,2.7,90,0.05,,---,0.05,VWS V14.01,2013-04-29 06:07:00,
2013-04-29 01:12:00,56.7,53.5,29.82,NW,315,0.0,0.9,89,0.05,,---,0.05,VWS V14.01,2013-04-29 06:12:00,
2013-04-29 01:18:00,56.7,52.8,29.82,WNW,292,0.0,0.0,87,0.05,,---,0.05,VWS V14.01,2013-04-29 06:18:00,
2013-04-29 01:24:00,56.5,52.3,29.82,WNW,292,0.0,0.0,86,0.05,,---,0.05,VWS V14.01,2013-04-29 06:24:00,
2013-04-29 01:29:00,56.5,52.3,29.82,WNW,292,0.0,0.0,86,0.05,,---,0.05,VWS V14.01,2013-04-29 06:29:00,
2013-04-29 01:34:00,56.3,51.9,29.82,WNW,292,0.0,0.0,85,0.05,,---,0.05,VWS V14.01,2013-04-29 06:34:00,
2013-04-29 01:39:00,56.3,51.9,29.82,WNW,292,0.0,0.0,85,0.05,,---,0.05,VWS V14.01,2013-04-29 06:39:00,
2013-04-29 01:44:00,56.3,51.9,29.82,WNW,292,0.0,0.0,85,0.05,,---,0.05,VWS V14.01,2013-04-29 06:44:00,
2013-04-29 01:49:00,56.3,51.9,29.82,WNW,292,0.0,0.0,85,0.05,,---,0.05,VWS V14.01,2013-04-29 06:49:00,
2013-04-29 01:54:00,56.1,52.0,29.82,WNW,292,0.0,0.0,86,0.00,,---,0.05,VWS V14.01,2013-04-29 06:54:00,
2013-04-29 01:59:00,55.9,51.5,29.82,NW,315,0.0,0.0,85,0.00,,---,0.05,VWS V14.01,2013-04-29 06:59:00,
2013-04-29 02:05:00,55.8,51.6,29.82,WNW,292,0.0,0.0,86,0.00,,---,0.05,VWS V14.01,2013-04-29 07:05:00,
2013-04-29 02:10:00,55.6,51.8,29.82,WNW,292,0.0,0.0,87,0.00,,---,0.05,VWS V14.01,2013-04-29 07:10:00,
2013-04-29 02:16:00,55.4,51.6,29.82,WNW,292,0.0,0.0,87,0.00,,---,0.05,VWS V14.01,2013-04-29 07:16:00,
2013-04-29 02:21:00,55.2,51.4,29.82,WNW,292,0.0,0.0,87,0.00,,---,0.05,VWS V14.01,2013-04-29 07:21:00,
2013-04-29 02:26:00,55.2,51.4,29.82,WNW,292,0.0,0.0,87,0.00,,---,0.05,VWS V14.01,2013-04-29 07:26:00,
2013-04-29 02:31:00,54.9,51.1,29.82,WNW,292,0.0,0.0,87,0.00,,---,0.05,VWS V14.01,2013-04-29 07:31:00,
2013-04-29 02:36:00,54.9,51.1,29.82,WNW,292,0.0,0.0,87,0.00,,---,0.05,VWS V14.01,2013-04-29 07:36:00,
2013-04-29 02:41:00,54.7,50.9,29.82,WNW,292,0.0,0.0,87,0.00,,---,0.05,VWS V14.01,2013-04-29 07:41:00,
2013-04-29 02:47:00,54.5,50.7,29.82,NNW,338,0.0,0.0,87,0.00,,---,0.05,VWS V14.01,2013-04-29 07:47:00,
2013-04-29 02:52:00,54.5,50.7,29.82,NNW,338,0.0,0.0,87,0.00,,---,0.05,VWS V14.01,2013-04-29 07:52:00,
2013-04-29 02:57:00,54.5,50.7,29.82,North,0,3.6,3.6,87,0.00,,---,0.05,VWS V14.01,2013-04-29 07:57:00,
2013-04-29 03:02:00,54.3,50.2,29.82,NNE,22,1.6,1.6,86,0.00,,---,0.05,VWS V14.01,2013-04-29 08:02:00,
2013-04-29 03:07:00,54.3,49.9,29.82,North,0,0.0,1.3,85,0.00,,---,0.05,VWS V14.01,2013-04-29 08:07:00,
2013-04-29 03:12:00,54.1,49.7,29.82,WNW,292,0.0,2.0,85,0.00,,---,0.05,VWS V14.01,2013-04-29 08:12:00,
2013-04-29 03:17:00,54.1,49.4,29.82,NNW,338,0.0,1.1,84,0.00,,---,0.05,VWS V14.01,2013-04-29 08:17:00,
2013-04-29 03:22:00,54.1,49.4,29.82,North,0,0.0,0.0,84,0.00,,---,0.05,VWS V14.01,2013-04-29 08:22:00,
2013-04-29 03:27:00,54.0,48.9,29.82,North,0,0.0,0.0,83,0.00,,---,0.05,VWS V14.01,2013-04-29 08:27:00,
2013-04-29 03:33:00,53.8,48.8,29.82,North,0,0.0,0.0,83,0.00,,---,0.05,VWS V14.01,2013-04-29 08:33:00,
2013-04-29 03:39:00,53.6,48.2,29.82,North,0,0.0,0.0,82,0.00,,---,0.05,VWS V14.01,2013-04-29 08:39:00,
2013-04-29 03:44:00,53.6,48.2,29.82,NNE,22,0.0,1.1,82,0.00,,---,0.05,VWS V14.01,2013-04-29 08:44:00,
2013-04-29 03:49:00,53.4,48.1,29.82,NNW,338,0.0,0.0,82,0.00,,---,0.05,VWS V14.01,2013-04-29 08:49:00,
2013-04-29 03:54:00,53.4,48.1,29.82,North,0,0.9,1.3,82,0.00,,---,0.05,VWS V14.01,2013-04-29 08:54:00,
2013-04-29 03:59:00,53.2,47.6,29.82,NNW,338,0.0,0.0,81,0.00,,---,0.05,VWS V14.01,2013-04-29 08:59:00,
2013-04-29 04:04:00,53.2,47.6,29.82,North,0,0.0,0.0,81,0.00,,---,0.05,VWS V14.01,2013-04-29 09:04:00,
2013-04-29 04:09:00,53.1,47.4,29.82,NNE,22,0.0,0.0,81,0.00,,---,0.05,VWS V14.01,2013-04-29 09:09:00,
2013-04-29 04:14:00,52.9,47.2,29.82,NNE,22,0.0,0.0,81,0.00,,---,0.05,VWS V14.01,2013-04-29 09:14:00,
2013-04-29 04:19:00,52.7,47.0,29.82,NW,315,0.0,2.0,81,0.00,,---,0.05,VWS V14.01,2013-04-29 09:19:00,
2013-04-29 04:24:00,52.7,47.0,29.82,NNW,338,0.0,0.0,81,0.00,,---,0.05,VWS V14.01,2013-04-29 09:24:00,
2013-04-29 04:29:00,52.5,46.9,29.82,North,0,1.1,2.5,81,0.00,,---,0.05,VWS V14.01,2013-04-29 09:29:00,
2013-04-29 04:34:00,52.3,46.7,29.82,North,0,0.0,2.9,81,0.00,,---,0.05,VWS V14.01,2013-04-29 09:34:00,
2013-04-29 04:39:00,52.3,46.7,29.82,North,0,2.0,2.7,81,0.00,,---,0.05,VWS V14.01,2013-04-29 09:39:00,
2013-04-29 04:45:00,52.3,46.0,29.85,North,0,3.1,3.1,79,0.00,,---,0.05,VWS V14.01,2013-04-29 09:45:00,
2013-04-29 04:50:00,52.3,45.7,29.85,North,0,1.3,3.1,78,0.00,,---,0.05,VWS V14.01,2013-04-29 09:50:00,
2013-04-29 04:55:00,52.2,44.8,29.85,North,0,2.5,2.9,76,0.00,,---,0.05,VWS V14.01,2013-04-29 09:55:00,
2013-04-29 05:01:00,52.0,44.3,29.85,NW,315,1.6,3.1,75,0.00,,---,0.05,VWS V14.01,2013-04-29 10:01:00,
2013-04-29 05:06:00,51.8,44.1,29.85,NNW,338,2.5,4.0,75,0.00,,---,0.05,VWS V14.01,2013-04-29 10:06:00,
2013-04-29 05:11:00,51.6,43.6,29.82,North,0,1.1,2.0,74,0.00,,---,0.05,VWS V14.01,2013-04-29 10:11:00,
2013-04-29 05:16:00,51.6,43.3,29.82,NNE,22,4.3,4.3,73,0.00,,---,0.05,VWS V14.01,2013-04-29 10:16:00,
2013-04-29 05:21:00,51.4,42.7,29.82,North,0,2.9,2.9,72,0.00,,---,0.05,VWS V14.01,2013-04-29 10:21:00,
2013-04-29 05:26:00,51.3,42.2,29.82,NNW,338,1.3,2.7,71,0.00,,---,0.05,VWS V14.01,2013-04-29 10:26:00,
2013-04-29 05:32:00,51.1,42.0,29.82,NNW,338,3.4,3.4,71,0.00,,---,0.05,VWS V14.01,2013-04-29 10:32:00,
2013-04-29 05:37:00,50.7,41.3,29.82,NNE,22,2.9,3.6,70,0.00,,---,0.05,VWS V14.01,2013-04-29 10:37:00,
2013-04-29 05:42:00,50.7,40.9,29.85,NNW,338,3.1,3.1,69,0.00,,---,0.05,VWS V14.01,2013-04-29 10:42:00,
2013-04-29 05:47:00,50.4,40.6,29.85,North,0,1.6,1.6,69,0.00,,---,0.05,VWS V14.01,2013-04-29 10:47:00,
2013-04-29 05:53:00,50.2,40.4,29.85,NNW,338,1.1,4.3,69,0.00,,---,0.05,VWS V14.01,2013-04-29 10:53:00,
2013-04-29 05:59:00,50.0,39.9,29.85,NNE,22,2.2,3.1,68,0.00,,---,0.05,VWS V14.01,2013-04-29 10:59:00,
2013-04-29 06:04:00,49.8,39.7,29.85,NE,45,2.7,3.6,68,0.00,,---,0.05,VWS V14.01,2013-04-29 11:04:00,
2013-04-29 06:10:00,49.6,39.5,29.85,North,0,2.7,4.3,68,0.00,,---,0.05,VWS V14.01,2013-04-29 11:10:00,
2013-04-29 06:16:00,49.5,39.0,29.82,North,0,2.2,5.4,67,0.00,,---,0.05,VWS V14.01,2013-04-29 11:16:00,
2013-04-29 06:21:00,49.3,38.4,29.82,North,0,2.0,2.7,66,0.00,,---,0.05,VWS V14.01,2013-04-29 11:21:00,
2013-04-29 06:26:00,49.3,38.4,29.82,North,0,1.6,3.4,66,0.00,,---,0.05,VWS V14.01,2013-04-29 11:26:00,
2013-04-29 06:31:00,49.1,37.9,29.82,NE,45,0.0,2.5,65,0.00,,---,0.05,VWS V14.01,2013-04-29 11:31:00,
2013-04-29 06:36:00,48.9,37.7,29.82,NNW,338,3.4,3.8,65,0.00,,---,0.05,VWS V14.01,2013-04-29 11:36:00,
2013-04-29 06:42:00,48.9,37.3,29.85,WSW,248,2.9,3.4,64,0.00,,---,0.05,VWS V14.01,2013-04-29 11:42:00,
2013-04-29 06:47:00,48.9,37.3,29.85,NNE,22,1.3,5.8,64,0.00,,---,0.05,VWS V14.01,2013-04-29 11:47:00,
2013-04-29 06:52:00,48.9,37.3,29.85,NE,45,2.7,3.6,64,0.00,,---,0.05,VWS V14.01,2013-04-29 11:52:00,
2013-04-29 06:58:00,48.9,37.3,29.82,NNW,338,4.3,4.3,64,0.00,,---,0.05,VWS V14.01,2013-04-29 11:58:00,
2013-04-29 07:03:00,49.1,37.1,29.82,North,0,4.0,4.0,63,0.00,,---,0.05,VWS V14.01,2013-04-29 12:03:00,
2013-04-29 07:09:00,49.5,36.2,29.82,NNW,338,3.4,4.9,60,0.00,,---,0.05,VWS V14.01,2013-04-29 12:09:00,
2013-04-29 07:14:00,49.8,36.1,29.82,NNW,338,3.6,3.8,59,0.00,,---,0.05,VWS V14.01,2013-04-29 12:14:00,
2013-04-29 07:19:00,50.2,35.5,29.82,NNW,338,6.3,6.3,57,0.00,,---,0.05,VWS V14.01,2013-04-29 12:19:00,
2013-04-29 07:24:00,50.2,34.7,29.82,North,0,2.5,4.7,55,0.00,,---,0.05,VWS V14.01,2013-04-29 12:24:00,
2013-04-29 07:29:00,50.4,34.8,29.82,NW,315,2.5,3.8,55,0.00,,---,0.05,VWS V14.01,2013-04-29 12:29:00,
2013-04-29 07:34:00,50.5,35.0,29.82,NNE,22,1.3,3.8,55,0.00,,---,0.05,VWS V14.01,2013-04-29 12:34:00,
2013-04-29 07:39:00,50.5,34.1,29.82,NNE,22,2.9,4.3,53,0.00,,---,0.05,VWS V14.01,2013-04-29 12:39:00,
2013-04-29 07:45:00,50.4,33.9,29.82,North,0,2.0,2.0,53,0.00,,---,0.05,VWS V14.01,2013-04-29 12:45:00,
2013-04-29 07:50:00,50.4,34.4,29.82,NNW,338,2.0,3.1,54,0.00,,---,0.05,VWS V14.01,2013-04-29 12:50:00,
2013-04-29 07:55:00,50.5,34.1,29.82,NW,315,4.3,4.3,53,0.00,,---,0.05,VWS V14.01,2013-04-29 12:55:00,
2013-04-29 08:00:00,50.5,34.1,29.82,NNE,22,2.2,2.7,53,0.00,,---,0.05,VWS V14.01,2013-04-29 13:00:00,
2013-04-29 08:06:00,50.5,34.1,29.82,NNW,338,2.7,4.3,53,0.00,,---,0.05,VWS V14.01,2013-04-29 13:06:00,
2013-04-29 08:11:00,50.7,34.2,29.82,NNE,22,1.6,4.9,53,0.00,,---,0.05,VWS V14.01,2013-04-29 13:11:00,
2013-04-29 08:16:00,51.1,34.1,29.82,North,0,3.4,3.4,52,0.00,,---,0.05,VWS V14.01,2013-04-29 13:16:00,
2013-04-29 08:21:00,51.4,33.9,29.82,NNW,338,3.1,4.7,51,0.00,,---,0.05,VWS V14.01,2013-04-29 13:21:00,
2013-04-29 08:27:00,51.8,33.8,29.85,NE,45,3.1,3.8,50,0.00,,---,0.05,VWS V14.01,2013-04-29 13:27:00,
2013-04-29 08:32:00,52.2,34.1,29.85,NNE,22,1.3,1.6,50,0.00,,---,0.05,VWS V14.01,2013-04-29 13:32:00,
2013-04-29 08:37:00,52.9,34.8,29.85,NE,45,0.9,2.5,50,0.00,,---,0.05,VWS V14.01,2013-04-29 13:37:00,
2013-04-29 08:42:00,53.8,35.1,29.82,NE,45,2.7,3.1,49,0.00,,---,0.05,VWS V14.01,2013-04-29 13:42:00,
2013-04-29 08:48:00,54.3,35.1,29.82,NE,45,3.1,5.4,48,0.00,,---,0.05,VWS V14.01,2013-04-29 13:48:00,
2013-04-29 08:53:00,54.7,34.9,29.82,NW,315,3.4,3.4,47,0.00,,---,0.05,VWS V14.01,2013-04-29 13:53:00,
2013-04-29 08:58:00,55.2,35.4,29.85,NNW,338,2.7,3.6,47,0.00,,---,0.05,VWS V14.01,2013-04-29 13:58:00,
2013-04-29 09:03:00,55.9,36.0,29.85,NE,45,2.2,2.2,47,0.00,,---,0.05,VWS V14.01,2013-04-29 14:03:00,
2013-04-29 09:08:00,56.3,35.2,29.85,NNW,338,2.9,4.7,45,0.00,,---,0.05,VWS V14.01,2013-04-29 14:08:00,
2013-04-29 09:13:00,56.5,36.0,29.82,NNE,22,1.1,3.6,46,0.00,,---,0.05,VWS V14.01,2013-04-29 14:13:00,
2013-04-29 09:18:00,56.8,35.7,29.82,NE,45,4.3,6.3,45,0.00,,---,0.05,VWS V14.01,2013-04-29 14:18:00,
2013-04-29 09:23:00,56.8,35.7,29.82,ENE,68,3.1,3.1,45,0.00,,---,0.05,VWS V14.01,2013-04-29 14:23:00,
2013-04-29 09:28:00,57.0,34.8,29.82,North,0,3.8,5.4,43,0.00,,---,0.05,VWS V14.01,2013-04-29 14:28:00,
2013-04-29 09:33:00,57.2,34.9,29.82,North,0,4.3,4.3,43,0.00,,---,0.05,VWS V14.01,2013-04-29 14:33:00,
2013-04-29 09:38:00,57.0,34.8,29.82,North,0,3.1,3.4,43,0.00,,---,0.05,VWS V14.01,2013-04-29 14:38:00,
2013-04-29 09:43:00,57.4,35.1,29.82,NE,45,3.6,4.3,43,0.00,,---,0.05,VWS V14.01,2013-04-29 14:43:00,
2013-04-29 09:48:00,57.4,34.5,29.82,ENE,68,0.0,1.3,42,0.00,,---,0.05,VWS V14.01,2013-04-29 14:48:00,
2013-04-29 09:53:00,58.1,35.7,29.82,NW,315,3.1,3.6,43,0.00,,---,0.05,VWS V14.01,2013-04-29 14:53:00,
2013-04-29 09:58:00,58.1,35.2,29.82,NW,315,2.7,2.7,42,0.00,,---,0.05,VWS V14.01,2013-04-29 14:58:00,
2013-04-29 10:03:00,58.5,35.5,29.82,SSE,158,2.7,2.7,42,0.00,,---,0.05,VWS V14.01,2013-04-29 15:03:00,
2013-04-29 10:08:00,59.0,36.0,29.82,SE,135,2.5,2.7,42,0.00,,---,0.05,VWS V14.01,2013-04-29 15:08:00,
2013-04-29 10:13:00,59.2,35.5,29.82,NW,315,0.0,2.2,41,0.00,,---,0.05,VWS V14.01,2013-04-29 15:13:00,
2013-04-29 10:18:00,59.5,35.2,29.82,ENE,68,1.1,3.4,40,0.00,,---,0.05,VWS V14.01,2013-04-29 15:18:00,
2013-04-29 10:23:00,60.1,36.3,29.82,North,0,1.6,2.5,41,0.00,,---,0.05,VWS V14.01,2013-04-29 15:23:00,
2013-04-29 10:28:00,60.4,36.7,29.79,NE,45,0.0,3.8,41,0.00,,---,0.05,VWS V14.01,2013-04-29 15:28:00,
2013-04-29 10:33:00,60.8,37.0,29.79,NNW,338,0.0,1.1,41,0.00,,---,0.05,VWS V14.01,2013-04-29 15:33:00,
2013-04-29 10:38:00,61.2,36.7,29.79,ENE,68,1.1,1.3,40,0.00,,---,0.05,VWS V14.01,2013-04-29 15:38:00,
2013-04-29 10:43:00,61.9,37.3,29.79,ENE,68,1.3,2.9,40,0.00,,---,0.05,VWS V14.01,2013-04-29 15:43:00,
2013-04-29 10:48:00,62.2,37.6,29.79,South,180,2.7,2.7,40,0.00,,---,0.05,VWS V14.01,2013-04-29 15:48:00,
2013-04-29 10:53:00,63.0,37.6,29.79,East,90,2.0,3.4,39,0.00,,---,0.05,VWS V14.01,2013-04-29 15:53:00,
2013-04-29 10:58:00,63.3,38.0,29.79,ESE,112,2.2,3.1,39,0.00,,---,0.05,VWS V14.01,2013-04-29 15:58:00,
2013-04-29 11:03:00,64.4,38.9,29.79,ENE,68,0.9,2.2,39,0.00,,---,0.05,VWS V14.01,2013-04-29 16:03:00,
2013-04-29 11:08:00,65.1,39.6,29.79,NNE,22,2.7,2.7,39,0.00,,---,0.05,VWS V14.01,2013-04-29 16:08:00,
2013-04-29 11:13:00,65.8,39.5,29.79,WNW,292,2.9,3.6,38,0.00,,---,0.05,VWS V14.01,2013-04-29 16:13:00,
2013-04-29 11:18:00,66.0,39.0,29.79,ESE,112,2.2,3.4,37,0.00,,---,0.05,VWS V14.01,2013-04-29 16:18:00,
2013-04-29 11:23:00,66.6,39.5,29.79,SE,135,2.7,2.7,37,0.00,,---,0.05,VWS V14.01,2013-04-29 16:23:00,
2013-04-29 11:28:00,66.6,39.5,29.79,East,90,3.1,3.1,37,0.00,,---,0.05,VWS V14.01,2013-04-29 16:28:00,
2013-04-29 11:33:00,67.8,40.6,29.79,NE,45,0.0,2.0,37,0.00,,---,0.05,VWS V14.01,2013-04-29 16:33:00,
2013-04-29 11:39:00,68.5,41.3,29.79,South,180,2.5,2.7,37,0.00,,---,0.05,VWS V14.01,2013-04-29 16:39:00,
2013-04-29 11:44:00,69.1,41.0,29.79,WNW,292,2.5,3.1,36,0.00,,---,0.05,VWS V14.01,2013-04-29 16:44:00,
2013-04-29 11:49:00,69.1,41.0,29.79,East,90,0.0,2.5,36,0.00,,---,0.05,VWS V14.01,2013-04-29 16:49:00,
2013-04-29 11:54:00,69.6,41.5,29.79,SE,135,2.7,2.7,36,0.00,,---,0.05,VWS V14.01,2013-04-29 16:54:00,
2013-04-29 11:59:00,70.5,41.6,29.79,NE,45,3.4,3.4,35,0.00,,---,0.05,VWS V14.01,2013-04-29 16:59:00,
2013-04-29 12:04:00,70.0,40.3,29.79,West,270,2.5,3.1,34,0.00,,---,0.05,VWS V14.01,2013-04-29 17:04:00,
2013-04-29 12:09:00,70.5,41.6,29.79,ENE,68,0.0,0.0,35,0.00,,---,0.05,VWS V14.01,2013-04-29 17:09:00,
2013-04-29 12:14:00,71.8,42.7,29.79,ESE,112,2.0,2.7,35,0.00,,---,0.05,VWS V14.01,2013-04-29 17:14:00,
2013-04-29 12:19:00,71.8,41.9,29.79,NE,45,1.6,1.6,34,0.00,,---,0.05,VWS V14.01,2013-04-29 17:19:00,
2013-04-29 12:24:00,71.8,41.2,29.79,NE,45,1.3,1.3,33,0.00,,---,0.05,VWS V14.01,2013-04-29 17:24:00,
2013-04-29 12:29:00,72.5,42.6,29.79,SSE,158,3.8,3.8,34,0.00,,---,0.05,VWS V14.01,2013-04-29 17:29:00,
2013-04-29 12:34:00,72.7,42.7,29.79,NNW,338,1.6,4.9,34,0.00,,---,0.05,VWS V14.01,2013-04-29 17:34:00,
2013-04-29 12:39:00,72.7,42.0,29.79,SE,135,2.9,3.8,33,0.00,,---,0.05,VWS V14.01,2013-04-29 17:39:00,
2013-04-29 12:44:00,72.9,42.1,29.79,East,90,3.8,3.8,33,0.00,,---,0.05,VWS V14.01,2013-04-29 17:44:00,
2013-04-29 12:49:00,72.9,42.1,29.79,SSE,158,2.0,3.8,33,0.00,,---,0.05,VWS V14.01,2013-04-29 17:49:00,
2013-04-29 12:54:00,73.2,42.4,29.79,SSE,158,0.0,2.5,33,0.00,,---,0.05,VWS V14.01,2013-04-29 17:54:00,
2013-04-29 12:59:00,73.9,42.2,29.76,ENE,68,1.6,6.7,32,0.00,,---,0.05,VWS V14.01,2013-04-29 17:59:00,
2013-04-29 13:04:00,74.3,42.6,29.76,SSW,202,2.0,5.4,32,0.00,,---,0.05,VWS V14.01,2013-04-29 18:04:00,
2013-04-29 13:09:00,74.5,42.7,29.76,ENE,68,1.3,2.5,32,0.00,,---,0.05,VWS V14.01,2013-04-29 18:09:00,
2013-04-29 13:14:00,74.7,42.9,29.76,South,180,2.5,3.6,32,0.00,,---,0.05,VWS V14.01,2013-04-29 18:14:00,
2013-04-29 13:19:00,75.2,42.5,29.76,ESE,112,2.9,2.9,31,0.00,,---,0.05,VWS V14.01,2013-04-29 18:19:00,
2013-04-29 13:24:00,75.0,42.4,29.76,ESE,112,1.6,3.1,31,0.00,,---,0.05,VWS V14.01,2013-04-29 18:24:00,
2013-04-29 13:29:00,75.2,42.5,29.76,ESE,112,3.4,3.4,31,0.00,,---,0.05,VWS V14.01,2013-04-29 18:29:00,
2013-04-29 13:34:00,75.2,42.5,29.76,South,180,4.3,4.9,31,0.00,,---,0.05,VWS V14.01,2013-04-29 18:34:00,
2013-04-29 13:39:00,75.0,42.4,29.76,SSE,158,1.1,3.6,31,0.00,,---,0.05,VWS V14.01,2013-04-29 18:39:00,
2013-04-29 13:44:00,75.4,42.7,29.76,SW,225,2.0,2.2,31,0.00,,---,0.05,VWS V14.01,2013-04-29 18:44:00,
2013-04-29 13:49:00,75.6,42.8,29.76,NNE,22,2.9,3.8,31,0.00,,---,0.05,VWS V14.01,2013-04-29 18:49:00,
2013-04-29 13:54:00,75.6,42.8,29.76,NE,45,3.1,3.1,31,0.00,,---,0.05,VWS V14.01,2013-04-29 18:54:00,
2013-04-29 13:59:00,75.7,43.0,29.76,NW,315,1.1,2.7,31,0.00,,---,0.05,VWS V14.01,2013-04-29 18:59:00,
2013-04-29 14:04:00,76.1,43.3,29.76,North,0,4.9,4.9,31,0.00,,---,0.05,VWS V14.01,2013-04-29 19:04:00,
2013-04-29 14:09:00,76.3,43.5,29.76,SE,135,2.5,2.9,31,0.00,,---,0.05,VWS V14.01,2013-04-29 19:09:00,
2013-04-29 14:14:00,76.8,43.9,29.74,NNE,22,3.8,6.5,31,0.00,,---,0.05,VWS V14.01,2013-04-29 19:14:00,
2013-04-29 14:19:00,77.0,43.2,29.74,SE,135,2.0,2.5,30,0.00,,---,0.05,VWS V14.01,2013-04-29 19:19:00,
2013-04-29 14:25:00,76.6,42.9,29.74,ESE,112,6.0,6.3,30,0.00,,---,0.05,VWS V14.01,2013-04-29 19:25:00,
2013-04-29 14:30:00,76.5,41.9,29.76,WNW,292,2.9,3.6,29,0.00,,---,0.05,VWS V14.01,2013-04-29 19:30:00,
2013-04-29 14:35:00,76.1,41.6,29.76,NE,45,1.6,2.2,29,0.00,,---,0.05,VWS V14.01,2013-04-29 19:35:00,
2013-04-29 14:40:00,76.3,42.6,29.76,South,180,2.7,4.3,30,0.00,,---,0.05,VWS V14.01,2013-04-29 19:40:00,
2013-04-29 14:45:00,76.5,42.8,29.74,ENE,68,3.6,3.6,30,0.00,,---,0.05,VWS V14.01,2013-04-29 19:45:00,
2013-04-29 14:50:00,76.3,43.5,29.74,East,90,1.3,2.5,31,0.00,,---,0.05,VWS V14.01,2013-04-29 19:50:00,
2013-04-29 14:55:00,76.5,43.6,29.74,SE,135,3.6,3.6,31,0.00,,---,0.05,VWS V14.01,2013-04-29 19:55:00,
2013-04-29 15:01:00,76.3,43.5,29.74,ENE,68,2.2,4.3,31,0.00,,---,0.05,VWS V14.01,2013-04-29 20:01:00,
2013-04-29 15:06:00,76.5,43.6,29.74,SE,135,4.3,6.3,31,0.00,,---,0.05,VWS V14.01,2013-04-29 20:06:00,
2013-04-29 15:11:00,76.3,43.5,29.74,SE,135,2.5,4.7,31,0.00,,---,0.05,VWS V14.01,2013-04-29 20:11:00,
2013-04-29 15:16:00,76.3,43.5,29.74,South,180,2.5,3.8,31,0.00,,---,0.05,VWS V14.01,2013-04-29 20:16:00,
2013-04-29 15:21:00,75.9,43.1,29.74,South,180,2.9,8.7,31,0.00,,---,0.05,VWS V14.01,2013-04-29 20:21:00,
2013-04-29 15:26:00,75.6,42.8,29.74,SE,135,3.8,5.6,31,0.00,,---,0.05,VWS V14.01,2013-04-29 20:26:00,
2013-04-29 15:31:00,75.6,42.8,29.74,SE,135,4.5,5.6,31,0.00,,---,0.05,VWS V14.01,2013-04-29 20:31:00,
2013-04-29 15:36:00,75.2,42.5,29.74,ESE,112,5.8,5.8,31,0.00,,---,0.05,VWS V14.01,2013-04-29 20:36:00,
2013-04-29 15:41:00,75.2,42.5,29.71,NE,45,2.0,3.8,31,0.00,,---,0.05,VWS V14.01,2013-04-29 20:41:00,
2013-04-29 15:46:00,75.0,43.2,29.71,SSE,158,4.3,4.5,32,0.00,,---,0.05,VWS V14.01,2013-04-29 20:46:00,
2013-04-29 15:51:00,75.0,43.2,29.71,North,0,1.3,3.4,32,0.00,,---,0.05,VWS V14.01,2013-04-29 20:51:00,
2013-04-29 15:56:00,75.0,43.2,29.71,SE,135,4.0,4.0,32,0.00,,---,0.05,VWS V14.01,2013-04-29 20:56:00,
2013-04-29 16:01:00,74.8,43.0,29.71,SE,135,2.9,3.4,32,0.00,,---,0.05,VWS V14.01,2013-04-29 21:01:00,
2013-04-29 16:06:00,74.8,43.0,29.71,SSE,158,2.0,2.5,32,0.00,,---,0.05,VWS V14.01,2013-04-29 21:06:00,
2013-04-29 16:11:00,74.5,42.7,29.71,ESE,112,1.3,4.5,32,0.00,,---,0.05,VWS V14.01,2013-04-29 21:11:00,
2013-04-29 16:16:00,74.3,42.6,29.71,South,180,3.4,4.9,32,0.00,,---,0.05,VWS V14.01,2013-04-29 21:16:00,
2013-04-29 16:21:00,74.3,42.6,29.71,South,180,2.7,3.6,32,0.00,,---,0.05,VWS V14.01,2013-04-29 21:21:00,
2013-04-29 16:26:00,74.7,42.9,29.71,East,90,3.6,4.0,32,0.00,,---,0.05,VWS V14.01,2013-04-29 21:26:00,
2013-04-29 16:31:00,75.0,44.0,29.71,East,90,3.1,4.5,33,0.00,,---,0.05,VWS V14.01,2013-04-29 21:31:00,
2013-04-29 16:36:00,75.0,43.2,29.71,ENE,68,4.0,4.0,32,0.00,,---,0.05,VWS V14.01,2013-04-29 21:36:00,
2013-04-29 16:42:00,74.7,43.7,29.71,South,180,1.3,2.7,33,0.00,,---,0.05,VWS V14.01,2013-04-29 21:42:00,
2013-04-29 16:47:00,74.5,43.5,29.71,South,180,3.8,5.4,33,0.00,,---,0.05,VWS V14.01,2013-04-29 21:47:00,
2013-04-29 16:52:00,73.9,43.0,29.71,SSE,158,3.1,6.0,33,0.00,,---,0.05,VWS V14.01,2013-04-29 21:52:00,
2013-04-29 16:57:00,73.8,42.9,29.71,SSE,158,2.7,3.6,33,0.00,,---,0.05,VWS V14.01,2013-04-29 21:57:00,
2013-04-29 17:02:00,73.8,42.9,29.71,ESE,112,4.3,6.3,33,0.00,,---,0.05,VWS V14.01,2013-04-29 22:02:00,
2013-04-29 17:07:00,73.8,42.9,29.71,NE,45,2.0,2.0,33,0.00,,---,0.05,VWS V14.01,2013-04-29 22:07:00,
2013-04-29 17:12:00,73.8,43.7,29.71,SE,135,3.1,3.6,34,0.00,,---,0.05,VWS V14.01,2013-04-29 22:12:00,
2013-04-29 17:18:00,74.1,44.0,29.71,ESE,112,2.0,2.9,34,0.00,,---,0.05,VWS V14.01,2013-04-29 22:18:00,
2013-04-29 17:23:00,73.9,43.8,29.71,SE,135,1.3,3.1,34,0.00,,---,0.05,VWS V14.01,2013-04-29 22:23:00,
2013-04-29 17:28:00,73.9,43.8,29.68,ENE,68,5.4,5.8,34,0.00,,---,0.05,VWS V14.01,2013-04-29 22:28:00,
2013-04-29 17:33:00,73.9,43.0,29.68,SE,135,2.0,4.9,33,0.00,,---,0.05,VWS V14.01,2013-04-29 22:33:00,
2013-04-29 17:38:00,73.8,42.9,29.68,SE,135,2.5,3.4,33,0.00,,---,0.05,VWS V14.01,2013-04-29 22:38:00,
2013-04-29 17:43:00,73.9,43.0,29.68,South,180,2.7,4.9,33,0.00,,---,0.05,VWS V14.01,2013-04-29 22:43:00,
2013-04-29 17:48:00,73.8,42.9,29.68,SSE,158,2.7,4.5,33,0.00,,---,0.05,VWS V14.01,2013-04-29 22:48:00,
2013-04-29 17:53:00,73.6,42.7,29.68,South,180,4.0,5.6,33,0.00,,---,0.05,VWS V14.01,2013-04-29 22:53:00,
2013-04-29 17:58:00,73.6,43.5,29.68,East,90,2.2,2.5,34,0.00,,---,0.05,VWS V14.01,2013-04-29 22:58:00,
2013-04-29 18:03:00,73.6,43.5,29.68,SSE,158,6.5,6.5,34,0.00,,---,0.05,VWS V14.01,2013-04-29 23:03:00,
2013-04-29 18:08:00,73.4,43.3,29.68,SSW,202,3.6,3.6,34,0.00,,---,0.05,VWS V14.01,2013-04-29 23:08:00,
2013-04-29 18:13:00,73.6,43.5,29.68,SSE,158,0.0,2.5,34,0.00,,---,0.05,VWS V14.01,2013-04-29 23:13:00,
2013-04-29 18:18:00,73.6,43.5,29.68,South,180,2.7,2.9,34,0.00,,---,0.05,VWS V14.01,2013-04-29 23:18:00,
2013-04-29 18:23:00,73.6,43.5,29.68,SSW,202,2.7,4.7,34,0.00,,---,0.05,VWS V14.01,2013-04-29 23:23:00,
2013-04-29 18:28:00,73.2,44.0,29.68,SW,225,2.5,5.8,35,0.00,,---,0.05,VWS V14.01,2013-04-29 23:28:00,
2013-04-29 18:33:00,73.2,44.7,29.68,ESE,112,3.6,3.6,36,0.00,,---,0.05,VWS V14.01,2013-04-29 23:33:00,
2013-04-29 18:39:00,72.9,45.1,29.68,South,180,4.3,4.3,37,0.00,,---,0.05,VWS V14.01,2013-04-29 23:39:00,
2013-04-29 18:44:00,72.5,44.8,29.68,South,180,2.5,2.5,37,0.00,,---,0.05,VWS V14.01,2013-04-29 23:44:00,
2013-04-29 18:49:00,72.3,45.3,29.68,SSE,158,2.5,3.4,38,0.00,,---,0.05,VWS V14.01,2013-04-29 23:49:00,
2013-04-29 18:54:00,72.3,45.3,29.68,ESE,112,4.9,4.9,38,0.00,,---,0.05,VWS V14.01,2013-04-29 23:54:00,
2013-04-29 18:59:00,72.3,46.7,29.68,West,270,1.6,3.6,40,0.00,,---,0.05,VWS V14.01,2013-04-29 23:59:00,
2013-04-29 19:04:00,72.1,46.5,29.68,SSE,158,1.6,4.3,40,0.00,,---,0.05,VWS V14.01,2013-04-30 00:04:00,
2013-04-29 19:09:00,72.1,46.5,29.68,SE,135,0.9,2.5,40,0.00,,---,0.05,VWS V14.01,2013-04-30 00:09:00,
2013-04-29 19:14:00,72.0,47.0,29.68,SSW,202,1.1,2.7,41,0.00,,---,0.05,VWS V14.01,2013-04-30 00:14:00,
2013-04-29 19:19:00,71.8,46.8,29.68,ESE,112,2.7,3.4,41,0.00,,---,0.05,VWS V14.01,2013-04-30 00:19:00,
2013-04-29 19:24:00,71.6,46.7,29.68,SSW,202,2.9,2.9,41,0.00,,---,0.05,VWS V14.01,2013-04-30 00:24:00,
2013-04-29 19:29:00,71.6,47.3,29.68,South,180,1.6,3.6,42,0.00,,---,0.05,VWS V14.01,2013-04-30 00:29:00,
2013-04-29 19:35:00,71.4,47.2,29.68,South,180,1.6,1.6,42,0.00,,---,0.05,VWS V14.01,2013-04-30 00:35:00,
2013-04-29 19:40:00,71.4,47.8,29.68,ESE,112,1.3,1.6,43,0.00,,---,0.05,VWS V14.01,2013-04-30 00:40:00,
2013-04-29 19:45:00,71.2,47.6,29.65,SE,135,2.7,4.9,43,0.00,,---,0.05,VWS V14.01,2013-04-30 00:45:00,
2013-04-29 19:50:00,71.2,48.2,29.65,ESE,112,2.7,3.6,44,0.00,,---,0.05,VWS V14.01,2013-04-30 00:50:00,
2013-04-29 19:56:00,71.2,48.8,29.65,SSE,158,2.5,4.3,45,0.00,,---,0.05,VWS V14.01,2013-04-30 00:56:00,
2013-04-29 20:01:00,71.1,48.7,29.65,ENE,68,2.5,2.5,45,0.00,,---,0.05,VWS V14.01,2013-04-30 01:01:00,
2013-04-29 20:06:00,70.7,48.3,29.65,South,180,0.9,0.9,45,0.00,,---,0.05,VWS V14.01,2013-04-30 01:06:00,
2013-04-29 20:11:00,70.5,48.8,29.68,SE,135,1.6,2.2,46,0.00,,---,0.05,VWS V14.01,2013-04-30 01:11:00,
2013-04-29 20:17:00,70.3,48.6,29.68,SSE,158,2.0,2.7,46,0.00,,---,0.05,VWS V14.01,2013-04-30 01:17:00,
2013-04-29 20:22:00,70.2,49.0,29.68,SE,135,0.0,2.0,47,0.00,,---,0.05,VWS V14.01,2013-04-30 01:22:00,
2013-04-29 20:27:00,70.0,49.4,29.68,SSE,158,2.0,2.5,48,0.00,,---,0.05,VWS V14.01,2013-04-30 01:27:00,
2013-04-29 20:32:00,69.8,48.7,29.68,SSE,158,0.0,0.9,47,0.00,,---,0.05,VWS V14.01,2013-04-30 01:32:00,
2013-04-29 20:38:00,69.6,49.6,29.68,SSE,158,2.5,2.7,49,0.00,,---,0.05,VWS V14.01,2013-04-30 01:38:00,
2013-04-29 20:43:00,69.4,50.0,29.68,South,180,2.0,2.7,50,0.00,,---,0.05,VWS V14.01,2013-04-30 01:43:00,
2013-04-29 20:48:00,69.4,50.0,29.68,SE,135,5.6,5.6,50,0.00,,---,0.05,VWS V14.01,2013-04-30 01:48:00,
2013-04-29 20:53:00,69.3,50.4,29.68,SE,135,1.6,2.5,51,0.00,,---,0.05,VWS V14.01,2013-04-30 01:53:00,
2013-04-29 20:59:00,69.1,51.2,29.68,ESE,112,0.9,2.7,53,0.00,,---,0.05,VWS V14.01,2013-04-30 01:59:00,
2013-04-29 21:04:00,69.1,51.8,29.68,SSE,158,2.0,2.7,54,0.00,,---,0.05,VWS V14.01,2013-04-30 02:04:00,
2013-04-29 21:10:00,68.7,50.9,29.68,South,180,1.1,2.0,53,0.00,,---,0.05,VWS V14.01,2013-04-30 02:10:00,
2013-04-29 21:15:00,68.7,51.9,29.68,NE,45,2.5,4.0,55,0.00,,---,0.05,VWS V14.01,2013-04-30 02:15:00,
2013-04-29 21:20:00,68.5,51.8,29.68,SSE,158,2.5,5.4,55,0.00,,---,0.05,VWS V14.01,2013-04-30 02:20:00,
2013-04-29 21:25:00,68.4,52.1,29.68,SSE,158,3.4,3.4,56,0.00,,---,0.05,VWS V14.01,2013-04-30 02:25:00,
2013-04-29 21:30:00,68.4,53.0,29.68,SW,225,3.1,4.9,58,0.00,,---,0.05,VWS V14.01,2013-04-30 02:30:00,
2013-04-29 21:36:00,68.2,52.9,29.68,SSW,202,2.7,3.8,58,0.00,,---,0.05,VWS V14.01,2013-04-30 02:36:00,
2013-04-29 21:41:00,68.0,52.7,29.68,ENE,68,1.6,4.0,58,0.00,,---,0.05,VWS V14.01,2013-04-30 02:41:00,
2013-04-29 21:46:00,68.0,53.2,29.68,South,180,4.3,4.3,59,0.00,,---,0.05,VWS V14.01,2013-04-30 02:46:00,
2013-04-29 21:52:00,67.8,53.4,29.68,SSW,202,2.0,2.9,60,0.00,,---,0.05,VWS V14.01,2013-04-30 02:52:00,
2013-04-29 21:57:00,67.6,54.2,29.68,SSE,158,4.7,5.4,62,0.00,,---,0.05,VWS V14.01,2013-04-30 02:57:00,
2013-04-29 22:02:00,67.5,53.6,29.68,SE,135,1.6,2.9,61,0.00,,---,0.05,VWS V14.01,2013-04-30 03:02:00,
2013-04-29 22:07:00,67.3,53.4,29.68,SE,135,3.8,3.8,61,0.00,,---,0.05,VWS V14.01,2013-04-30 03:07:00,
2013-04-29 22:13:00,67.3,53.8,29.65,SSE,158,3.4,3.4,62,0.00,,---,0.05,VWS V14.01,2013-04-30 03:13:00,
2013-04-29 22:18:00,67.1,53.7,29.65,SSE,158,2.7,4.3,62,0.00,,---,0.05,VWS V14.01,2013-04-30 03:18:00,
2013-04-29 22:24:00,67.1,54.1,29.65,South,180,3.1,5.6,63,0.00,,---,0.05,VWS V14.01,2013-04-30 03:24:00,
2013-04-29 22:29:00,66.9,54.4,29.65,ESE,112,4.3,6.0,64,0.00,,---,0.05,VWS V14.01,2013-04-30 03:29:00,
2013-04-29 22:34:00,66.7,53.8,29.65,ESE,112,4.3,5.6,63,0.00,,---,0.05,VWS V14.01,2013-04-30 03:34:00,
2013-04-29 22:39:00,66.6,54.0,29.65,SW,225,3.6,5.4,64,0.00,,---,0.05,VWS V14.01,2013-04-30 03:39:00,
2013-04-29 22:45:00,66.4,53.4,29.65,SE,135,2.7,2.7,63,0.00,,---,0.05,VWS V14.01,2013-04-30 03:45:00,
2013-04-29 22:50:00,66.4,53.8,29.65,SE,135,2.9,3.4,64,0.00,,---,0.05,VWS V14.01,2013-04-30 03:50:00,
2013-04-29 22:56:00,66.2,53.7,29.65,South,180,2.5,2.5,64,0.00,,---,0.05,VWS V14.01,2013-04-30 03:56:00,
2013-04-29 23:01:00,66.0,53.9,29.65,SSE,158,2.0,2.2,65,0.00,,---,0.05,VWS V14.01,2013-04-30 04:01:00,
2013-04-29 23:03:00,66.0,53.9,29.65,South,180,2.9,2.9,65,0.00,,---,0.05,VWS V14.01,2013-04-30 04:03:00,
2013-04-29 23:07:00,65.8,53.8,29.65,ENE,68,3.1,3.4,65,0.00,,---,0.05,VWS V14.01,2013-04-30 04:07:00,
2013-04-29 23:09:00,65.8,53.8,29.65,South,180,2.2,2.2,65,0.00,,---,0.05,VWS V14.01,2013-04-30 04:09:00,
2013-04-29 23:15:00,65.7,54.0,29.65,ENE,68,2.9,3.8,66,0.00,,---,0.05,VWS V14.01,2013-04-30 04:15:00,
2013-04-29 23:17:00,65.7,54.0,29.65,ENE,68,2.7,2.9,66,0.00,,---,0.05,VWS V14.01,2013-04-30 04:17:00,
2013-04-29 23:22:00,65.5,54.2,29.65,SE,135,7.6,7.6,67,0.00,,---,0.05,VWS V14.01,2013-04-30 04:22:00,
2013-04-29 23:27:00,65.3,54.1,29.65,SE,135,4.0,4.0,67,0.00,,---,0.05,VWS V14.01,2013-04-30 04:27:00,
2013-04-29 23:34:00,65.1,54.3,29.65,SSE,158,2.5,3.4,68,0.00,,---,0.05,VWS V14.01,2013-04-30 04:34:00,
2013-04-29 23:39:00,65.1,54.3,29.65,NE,45,3.1,3.6,68,0.00,,---,0.05,VWS V14.01,2013-04-30 04:39:00,
2013-04-29 23:45:00,64.9,54.1,29.62,SSE,158,2.9,3.4,68,0.00,,---,0.05,VWS V14.01,2013-04-30 04:45:00,
2013-04-29 23:50:00,64.8,54.4,29.62,SE,135,2.7,3.6,69,0.00,,---,0.05,VWS V14.01,2013-04-30 04:50:00,
2013-04-29 23:56:00,64.8,54.0,29.62,SSE,158,3.1,5.4,68,0.00,,---,0.05,VWS V14.01,2013-04-30 04:56:00,